sensor_id;sensor_type;location;lat;lon;timestamp;pressure;altitude;pressure_sealevel;temperature;humidity
26443;BME280;5563;52.296;6.806;2023-04-04T00:02:06;102999.66;;;1.05;68.04
26443;BME280;5563;52.296;6.806;2023-04-04T00:04:40;102984.78;;;1.03;68.33
26443;BME280;5563;52.296;6.806;2023-04-04T00:07:08;102991.81;;;1.02;67.99
26443;BME280;5563;52.296;6.806;2023-04-04T00:09:48;102992.75;;;0.97;68.40
26443;BME280;5563;52.296;6.806;2023-04-04T00:12:15;102983.16;;;0.90;67.96
26443;BME280;5563;52.296;6.806;2023-04-04T00:14:53;102995.41;;;0.89;68.30
26443;BME280;5563;52.296;6.806;2023-04-04T00:17:20;102992.81;;;0.82;68.82
26443;BME280;5563;52.296;6.806;2023-04-04T00:19:53;102981.47;;;0.80;68.64
26443;BME280;5563;52.296;6.806;2023-04-04T00:22:24;102983.28;;;0.72;68.65
26443;BME280;5563;52.296;6.806;2023-04-04T00:24:57;102960.63;;;0.56;68.95
26443;BME280;5563;52.296;6.806;2023-04-04T00:27:31;102981.59;;;0.57;68.77
26443;BME280;5563;52.296;6.806;2023-04-04T00:29:58;102972.03;;;0.49;69.31
26443;BME280;5563;52.296;6.806;2023-04-04T00:32:31;102971.19;;;0.44;69.14
26443;BME280;5563;52.296;6.806;2023-04-04T00:34:58;102972.13;;;0.37;69.67
26443;BME280;5563;52.296;6.806;2023-04-04T00:37:32;102968.66;;;0.32;69.94
26443;BME280;5563;52.296;6.806;2023-04-04T00:39:59;102972.13;;;0.31;70.46
26443;BME280;5563;52.296;6.806;2023-04-04T00:42:33;102964.28;;;0.28;70.37
26443;BME280;5563;52.296;6.806;2023-04-04T00:45:01;102967.78;;;0.27;70.10
26443;BME280;5563;52.296;6.806;2023-04-04T00:47:35;102962.53;;;0.30;70.09
26443;BME280;5563;52.296;6.806;2023-04-04T00:50:04;102966.00;;;0.29;70.88
26443;BME280;5563;52.296;6.806;2023-04-04T00:52:37;102957.28;;;0.28;70.92
26443;BME280;5563;52.296;6.806;2023-04-04T00:55:10;102966.91;;;0.29;71.02
26443;BME280;5563;52.296;6.806;2023-04-04T00:57:45;102949.44;;;0.24;70.73
26443;BME280;5563;52.296;6.806;2023-04-04T01:00:13;102961.69;;;0.25;70.58
26443;BME280;5563;52.296;6.806;2023-04-04T01:02:48;102955.59;;;0.17;70.59
26443;BME280;5563;52.296;6.806;2023-04-04T01:05:22;102948.63;;;0.10;70.01
26443;BME280;5563;52.296;6.806;2023-04-04T01:07:56;102947.81;;;0.02;70.61
26443;BME280;5563;52.296;6.806;2023-04-04T01:10:31;102955.66;;;-0.02;71.09
26443;BME280;5563;52.296;6.806;2023-04-04T01:13:11;102946.06;;;-0.07;70.97
26443;BME280;5563;52.296;6.806;2023-04-04T01:15:44;102953.94;;;-0.09;71.60
26443;BME280;5563;52.296;6.806;2023-04-04T01:18:14;102949.59;;;-0.10;71.33
26443;BME280;5563;52.296;6.806;2023-04-04T01:20:56;102938.22;;;-0.12;71.19
26443;BME280;5563;52.296;6.806;2023-04-04T01:23:31;102951.34;;;-0.13;71.47
26443;BME280;5563;52.296;6.806;2023-04-04T01:26:07;102950.47;;;-0.17;71.37
26443;BME280;5563;52.296;6.806;2023-04-04T01:28:35;102956.59;;;-0.16;71.33
26443;BME280;5563;52.296;6.806;2023-04-04T01:31:11;102958.34;;;-0.15;71.38
26443;BME280;5563;52.296;6.806;2023-04-04T01:33:45;102954.00;;;-0.25;71.46
26443;BME280;5563;52.296;6.806;2023-04-04T01:36:40;102964.50;;;-0.24;71.08
26443;BME280;5563;52.296;6.806;2023-04-04T01:39:38;102960.13;;;-0.28;71.60
26443;BME280;5563;52.296;6.806;2023-04-04T01:42:14;102957.53;;;-0.31;71.78
26443;BME280;5563;52.296;6.806;2023-04-04T01:44:42;102967.13;;;-0.34;71.53
26443;BME280;5563;52.296;6.806;2023-04-04T01:47:16;102955.78;;;-0.42;71.28
26443;BME280;5563;52.296;6.806;2023-04-04T01:49:50;102960.16;;;-0.49;70.87
26443;BME280;5563;52.296;6.806;2023-04-04T01:52:26;102958.41;;;-0.51;71.88
26443;BME280;5563;52.296;6.806;2023-04-04T01:55:00;102951.44;;;-0.52;72.14
26443;BME280;5563;52.296;6.806;2023-04-04T01:57:33;102952.31;;;-0.56;72.14
26443;BME280;5563;52.296;6.806;2023-04-04T02:00:07;102952.34;;;-0.59;72.45
26443;BME280;5563;52.296;6.806;2023-04-04T02:02:34;102949.72;;;-0.62;72.62
26443;BME280;5563;52.296;6.806;2023-04-04T02:05:08;102950.59;;;-0.63;72.95
26443;BME280;5563;52.296;6.806;2023-04-04T02:07:35;102954.97;;;-0.68;72.71
26443;BME280;5563;52.296;6.806;2023-04-04T02:10:16;102942.75;;;-0.75;72.26
26443;BME280;5563;52.296;6.806;2023-04-04T02:12:43;102941.03;;;-0.85;72.55
26443;BME280;5563;52.296;6.806;2023-04-04T02:15:17;102935.78;;;-0.96;72.49
26443;BME280;5563;52.296;6.806;2023-04-04T02:17:48;102939.28;;;-1.00;73.04
26443;BME280;5563;52.296;6.806;2023-04-04T02:20:21;102936.63;;;-1.04;73.35
26443;BME280;5563;52.296;6.806;2023-04-04T02:22:53;102936.66;;;-0.98;73.29
26443;BME280;5563;52.296;6.806;2023-04-04T02:25:26;102947.13;;;-0.98;73.15
26443;BME280;5563;52.296;6.806;2023-04-04T02:27:53;102946.25;;;-1.03;73.24
26443;BME280;5563;52.296;6.806;2023-04-04T02:30:27;102949.72;;;-1.06;72.58
26443;BME280;5563;52.296;6.806;2023-04-04T02:32:57;102950.63;;;-1.19;72.97
26443;BME280;5563;52.296;6.806;2023-04-04T02:35:32;102943.63;;;-1.23;72.89
26443;BME280;5563;52.296;6.806;2023-04-04T02:38:05;102945.38;;;-1.28;72.94
26443;BME280;5563;52.296;6.806;2023-04-04T02:40:33;102948.00;;;-1.30;73.43
26443;BME280;5563;52.296;6.806;2023-04-04T02:43:08;102949.72;;;-1.27;73.51
26443;BME280;5563;52.296;6.806;2023-04-04T02:45:35;102953.22;;;-1.25;73.63
26443;BME280;5563;52.296;6.806;2023-04-04T02:48:08;102945.34;;;-1.33;73.15
26443;BME280;5563;52.296;6.806;2023-04-04T02:50:36;102949.72;;;-1.33;73.82
26443;BME280;5563;52.296;6.806;2023-04-04T02:53:10;102945.34;;;-1.36;73.57
26443;BME280;5563;52.296;6.806;2023-04-04T02:55:37;102938.38;;;-1.43;73.21
26443;BME280;5563;52.296;6.806;2023-04-04T02:58:10;102941.00;;;-1.44;73.21
26443;BME280;5563;52.296;6.806;2023-04-04T03:00:37;102939.22;;;-1.50;73.30
26443;BME280;5563;52.296;6.806;2023-04-04T03:03:05;102940.09;;;-1.52;73.09
26443;BME280;5563;52.296;6.806;2023-04-04T03:05:39;102940.09;;;-1.55;73.09
26443;BME280;5563;52.296;6.806;2023-04-04T03:08:06;102933.09;;;-1.67;73.20
26443;BME280;5563;52.296;6.806;2023-04-04T03:10:40;102941.81;;;-1.63;73.69
26443;BME280;5563;52.296;6.806;2023-04-04T03:13:07;102935.69;;;-1.68;73.76
26443;BME280;5563;52.296;6.806;2023-04-04T03:15:41;102933.06;;;-1.76;73.88
26443;BME280;5563;52.296;6.806;2023-04-04T03:18:07;102918.25;;;-1.83;73.67
26443;BME280;5563;52.296;6.806;2023-04-04T03:20:40;102916.47;;;-1.85;73.92
26443;BME280;5563;52.296;6.806;2023-04-04T03:23:08;102917.31;;;-1.88;73.99
26443;BME280;5563;52.296;6.806;2023-04-04T03:25:42;102906.88;;;-1.92;74.18
26443;BME280;5563;52.296;6.806;2023-04-04T03:28:09;102901.63;;;-1.97;74.23
26443;BME280;5563;52.296;6.806;2023-04-04T03:30:43;102890.28;;;-2.06;74.24
26443;BME280;5563;52.296;6.806;2023-04-04T03:33:15;102889.41;;;-2.02;74.56
26443;BME280;5563;52.296;6.806;2023-04-04T03:35:48;102886.78;;;-2.08;74.49
26443;BME280;5563;52.296;6.806;2023-04-04T03:38:16;102874.56;;;-2.20;74.81
26443;BME280;5563;52.296;6.806;2023-04-04T03:40:43;102904.22;;;-2.04;74.89
26443;BME280;5563;52.296;6.806;2023-04-04T03:43:16;102889.38;;;-2.10;74.66
26443;BME280;5563;52.296;6.806;2023-04-04T03:45:43;102903.34;;;-2.08;74.35
26443;BME280;5563;52.296;6.806;2023-04-04T03:48:16;102907.69;;;-2.08;74.16
26443;BME280;5563;52.296;6.806;2023-04-04T03:50:43;102908.56;;;-2.06;74.01
26443;BME280;5563;52.296;6.806;2023-04-04T03:53:16;102903.34;;;-2.08;73.69
26443;BME280;5563;52.296;6.806;2023-04-04T03:55:44;102910.28;;;-2.08;74.23
26443;BME280;5563;52.296;6.806;2023-04-04T03:58:18;102910.28;;;-2.05;73.85
26443;BME280;5563;52.296;6.806;2023-04-04T04:00:51;102909.44;;;-2.01;74.72
26443;BME280;5563;52.296;6.806;2023-04-04T04:03:25;102908.56;;;-2.00;74.81
26443;BME280;5563;52.296;6.806;2023-04-04T04:05:52;102910.34;;;-1.98;74.43
26443;BME280;5563;52.296;6.806;2023-04-04T04:08:25;102899.84;;;-2.10;74.34
26443;BME280;5563;52.296;6.806;2023-04-04T04:11:04;102906.81;;;-2.07;74.27
26443;BME280;5563;52.296;6.806;2023-04-04T04:13:44;102900.69;;;-2.12;73.94
26443;BME280;5563;52.296;6.806;2023-04-04T04:16:11;102902.41;;;-2.17;73.95
26443;BME280;5563;52.296;6.806;2023-04-04T04:18:38;102902.41;;;-2.19;73.78
26443;BME280;5563;52.296;6.806;2023-04-04T04:21:12;102903.25;;;-2.23;74.14
26443;BME280;5563;52.296;6.806;2023-04-04T04:23:44;102899.75;;;-2.27;74.15
26443;BME280;5563;52.296;6.806;2023-04-04T04:26:18;102897.16;;;-2.30;74.24
26443;BME280;5563;52.296;6.806;2023-04-04T04:28:52;102898.00;;;-2.34;74.29
26443;BME280;5563;52.296;6.806;2023-04-04T04:31:19;102892.75;;;-2.40;74.33
26443;BME280;5563;52.296;6.806;2023-04-04T04:33:46;102892.75;;;-2.40;74.64
26443;BME280;5563;52.296;6.806;2023-04-04T04:36:20;102903.16;;;-2.44;74.94
26443;BME280;5563;52.296;6.806;2023-04-04T04:38:54;102894.44;;;-2.51;74.92
26443;BME280;5563;52.296;6.806;2023-04-04T04:41:28;102892.66;;;-2.53;75.09
26443;BME280;5563;52.296;6.806;2023-04-04T04:44:02;102906.59;;;-2.56;75.25
26443;BME280;5563;52.296;6.806;2023-04-04T04:46:35;102890.88;;;-2.65;75.20
26443;BME280;5563;52.296;6.806;2023-04-04T04:49:08;102887.38;;;-2.67;75.13
26443;BME280;5563;52.296;6.806;2023-04-04T04:51:42;102894.31;;;-2.67;75.18
26443;BME280;5563;52.296;6.806;2023-04-04T04:54:15;102897.81;;;-2.68;75.07
26443;BME280;5563;52.296;6.806;2023-04-04T04:56:42;102896.06;;;-2.69;75.05
26443;BME280;5563;52.296;6.806;2023-04-04T04:59:15;102898.66;;;-2.74;75.03
26443;BME280;5563;52.296;6.806;2023-04-04T05:01:42;102897.78;;;-2.73;75.08
26443;BME280;5563;52.296;6.806;2023-04-04T05:04:15;102903.00;;;-2.73;74.90
26443;BME280;5563;52.296;6.806;2023-04-04T05:06:43;102896.03;;;-2.72;74.87
26443;BME280;5563;52.296;6.806;2023-04-04T05:09:16;102895.16;;;-2.76;74.93
26443;BME280;5563;52.296;6.806;2023-04-04T05:11:57;102896.03;;;-2.72;75.17
26443;BME280;5563;52.296;6.806;2023-04-04T05:14:24;102892.56;;;-2.73;74.68
26443;BME280;5563;52.296;6.806;2023-04-04T05:16:57;102901.28;;;-2.69;75.09
26443;BME280;5563;52.296;6.806;2023-04-04T05:19:24;102891.72;;;-2.69;75.19
26443;BME280;5563;52.296;6.806;2023-04-04T05:21:58;102910.03;;;-2.61;74.80
26443;BME280;5563;52.296;6.806;2023-04-04T05:24:31;102908.31;;;-2.58;74.52
26443;BME280;5563;52.296;6.806;2023-04-04T05:26:59;102905.72;;;-2.56;74.78
26443;BME280;5563;52.296;6.806;2023-04-04T05:29:32;102922.38;;;-2.29;75.39
26443;BME280;5563;52.296;6.806;2023-04-04T05:31:59;102925.94;;;-2.22;75.56
26443;BME280;5563;52.296;6.806;2023-04-04T05:34:32;102923.31;;;-2.16;75.31
26443;BME280;5563;52.296;6.806;2023-04-04T05:37:00;102927.69;;;-2.12;74.66
26443;BME280;5563;52.296;6.806;2023-04-04T05:39:32;102931.19;;;-2.05;75.04
26443;BME280;5563;52.296;6.806;2023-04-04T05:42:05;102933.84;;;-1.99;75.12
26443;BME280;5563;52.296;6.806;2023-04-04T05:44:39;102942.56;;;-1.96;74.83
26443;BME280;5563;52.296;6.806;2023-04-04T05:47:07;102936.50;;;-1.93;74.36
26443;BME280;5563;52.296;6.806;2023-04-04T05:49:41;102935.63;;;-1.88;74.36
26443;BME280;5563;52.296;6.806;2023-04-04T05:52:13;102929.53;;;-1.85;73.72
26443;BME280;5563;52.296;6.806;2023-04-04T05:54:47;102930.44;;;-1.80;73.69
26443;BME280;5563;52.296;6.806;2023-04-04T05:57:20;102928.69;;;-1.75;73.21
26443;BME280;5563;52.296;6.806;2023-04-04T05:59:54;102924.38;;;-1.63;74.22
26443;BME280;5563;52.296;6.806;2023-04-04T06:02:27;102927.88;;;-1.53;74.04
26443;BME280;5563;52.296;6.806;2023-04-04T06:04:55;102907.81;;;-1.54;73.72
26443;BME280;5563;52.296;6.806;2023-04-04T06:07:29;102937.50;;;-1.37;74.06
26443;BME280;5563;52.296;6.806;2023-04-04T06:09:56;102930.53;;;-1.32;73.74
26443;BME280;5563;52.296;6.806;2023-04-04T06:12:37;102913.97;;;-1.37;73.55
26443;BME280;5563;52.296;6.806;2023-04-04T06:15:04;102894.75;;;-1.36;73.55
26443;BME280;5563;52.296;6.806;2023-04-04T06:17:39;102926.19;;;-1.17;73.74
26443;BME280;5563;52.296;6.806;2023-04-04T06:20:06;102917.47;;;-1.14;73.45
26443;BME280;5563;52.296;6.806;2023-04-04T06:22:33;102934.06;;;-1.03;73.41
26443;BME280;5563;52.296;6.806;2023-04-04T06:25:08;102937.53;;;-0.95;73.40
26443;BME280;5563;52.296;6.806;2023-04-04T06:27:36;102933.16;;;-0.85;73.27
26443;BME280;5563;52.296;6.806;2023-04-04T06:30:13;102920.94;;;-0.79;73.30
26443;BME280;5563;52.296;6.806;2023-04-04T06:32:42;102935.72;;;-0.58;73.21
26443;BME280;5563;52.296;6.806;2023-04-04T06:35:17;102915.66;;;-0.58;73.01
26443;BME280;5563;52.296;6.806;2023-04-04T06:37:45;102919.13;;;-0.45;73.03
26443;BME280;5563;52.296;6.806;2023-04-04T06:40:21;102935.66;;;-0.25;72.94
26443;BME280;5563;52.296;6.806;2023-04-04T06:42:49;102919.94;;;-0.25;72.72
26443;BME280;5563;52.296;6.806;2023-04-04T06:45:26;102934.75;;;-0.09;72.20
26443;BME280;5563;52.296;6.806;2023-04-04T06:48:01;102948.66;;;0.07;72.36
26443;BME280;5563;52.296;6.806;2023-04-04T06:50:36;102947.69;;;0.24;72.06
26443;BME280;5563;52.296;6.806;2023-04-04T06:53:03;102945.94;;;0.28;71.63
26443;BME280;5563;52.296;6.806;2023-04-04T06:55:37;102920.56;;;0.28;70.88
26443;BME280;5563;52.296;6.806;2023-04-04T06:58:11;102942.28;;;0.53;71.27
26443;BME280;5563;52.296;6.806;2023-04-04T07:00:37;102955.31;;;0.71;71.50
26443;BME280;5563;52.296;6.806;2023-04-04T07:03:11;102946.47;;;0.76;71.27
26443;BME280;5563;52.296;6.806;2023-04-04T07:05:45;102923.78;;;0.72;70.16
26443;BME280;5563;52.296;6.806;2023-04-04T07:08:18;102946.44;;;0.82;70.00
26443;BME280;5563;52.296;6.806;2023-04-04T07:11:03;102944.69;;;0.84;70.13
26443;BME280;5563;52.296;6.806;2023-04-04T07:13:37;102949.88;;;0.93;70.11
26443;BME280;5563;52.296;6.806;2023-04-04T07:16:04;102953.28;;;1.01;69.93
26443;BME280;5563;52.296;6.806;2023-04-04T07:18:41;102943.63;;;1.06;70.11
26443;BME280;5563;52.296;6.806;2023-04-04T07:21:08;102935.69;;;1.14;70.15
26443;BME280;5563;52.296;6.806;2023-04-04T07:23:42;102945.19;;;1.27;70.11
26443;BME280;5563;52.296;6.806;2023-04-04T07:26:09;102936.41;;;1.31;69.78
26443;BME280;5563;52.296;6.806;2023-04-04T07:28:43;102942.44;;;1.41;69.48
26443;BME280;5563;52.296;6.806;2023-04-04T07:31:09;102942.38;;;1.48;69.64
26443;BME280;5563;52.296;6.806;2023-04-04T07:33:43;102941.38;;;1.58;69.65
26443;BME280;5563;52.296;6.806;2023-04-04T07:36:10;102942.13;;;1.69;69.52
26443;BME280;5563;52.296;6.806;2023-04-04T07:38:44;102929.00;;;1.68;69.41
26443;BME280;5563;52.296;6.806;2023-04-04T07:41:13;102936.63;;;1.90;69.07
26443;BME280;5563;52.296;6.806;2023-04-04T07:43:47;102933.88;;;1.99;68.37
26443;BME280;5563;52.296;6.806;2023-04-04T07:46:14;102937.34;;;2.03;68.35
26443;BME280;5563;52.296;6.806;2023-04-04T07:48:42;102938.97;;;2.13;67.88
26443;BME280;5563;52.296;6.806;2023-04-04T07:51:16;102939.78;;;2.19;67.33
26443;BME280;5563;52.296;6.806;2023-04-04T07:53:42;102936.19;;;2.27;67.39
26443;BME280;5563;52.296;6.806;2023-04-04T07:56:15;102927.34;;;2.31;67.11
26443;BME280;5563;52.296;6.806;2023-04-04T07:58:42;102925.44;;;2.40;66.75
26443;BME280;5563;52.296;6.806;2023-04-04T08:01:16;102926.19;;;2.51;67.28
26443;BME280;5563;52.296;6.806;2023-04-04T08:03:49;102921.66;;;2.61;67.22
26443;BME280;5563;52.296;6.806;2023-04-04T08:06:25;102929.34;;;2.74;66.60
26443;BME280;5563;52.296;6.806;2023-04-04T08:08:52;102939.69;;;2.85;66.60
26443;BME280;5563;52.296;6.806;2023-04-04T08:11:26;102930.84;;;2.90;65.13
26443;BME280;5563;52.296;6.806;2023-04-04T08:13:53;102927.28;;;2.91;65.34
26443;BME280;5563;52.296;6.806;2023-04-04T08:16:26;102933.22;;;3.04;65.55
26443;BME280;5563;52.296;6.806;2023-04-04T08:19:00;102928.72;;;3.10;64.56
26443;BME280;5563;52.296;6.806;2023-04-04T08:21:29;102921.59;;;3.17;62.83
26443;BME280;5563;52.296;6.806;2023-04-04T08:24:03;102924.13;;;3.23;63.73
26443;BME280;5563;52.296;6.806;2023-04-04T08:26:30;102926.56;;;3.33;64.47
26443;BME280;5563;52.296;6.806;2023-04-04T08:29:04;102908.97;;;3.34;62.16
26443;BME280;5563;52.296;6.806;2023-04-04T08:31:31;102913.13;;;3.47;61.58
26443;BME280;5563;52.296;6.806;2023-04-04T08:34:05;102910.53;;;3.46;61.01
26443;BME280;5563;52.296;6.806;2023-04-04T08:36:34;102919.06;;;3.60;60.68
26443;BME280;5563;52.296;6.806;2023-04-04T08:39:08;102902.44;;;3.56;61.26
26443;BME280;5563;52.296;6.806;2023-04-04T08:41:35;102917.03;;;3.74;60.65
26443;BME280;5563;52.296;6.806;2023-04-04T08:44:15;102898.53;;;3.75;59.76
26443;BME280;5563;52.296;6.806;2023-04-04T08:46:44;102913.06;;;3.94;60.47
26443;BME280;5563;52.296;6.806;2023-04-04T08:49:18;102922.41;;;4.10;59.22
26443;BME280;5563;52.296;6.806;2023-04-04T08:51:55;102909.00;;;4.19;59.57
26443;BME280;5563;52.296;6.806;2023-04-04T08:54:29;102920.69;;;4.48;58.39
26443;BME280;5563;52.296;6.806;2023-04-04T08:56:56;102912.47;;;4.61;56.04
26443;BME280;5563;52.296;6.806;2023-04-04T08:59:30;102900.88;;;4.67;55.75
26443;BME280;5563;52.296;6.806;2023-04-04T09:02:12;102875.16;;;4.75;54.95
26443;BME280;5563;52.296;6.806;2023-04-04T09:04:46;102900.13;;;4.98;55.83
26443;BME280;5563;52.296;6.806;2023-04-04T09:07:30;102905.69;;;5.21;54.88
26443;BME280;5563;52.296;6.806;2023-04-04T09:10:06;102907.81;;;5.39;54.60
26443;BME280;5563;52.296;6.806;2023-04-04T09:12:44;102898.00;;;5.44;54.63
26443;BME280;5563;52.296;6.806;2023-04-04T09:15:27;102892.19;;;5.63;54.07
26443;BME280;5563;52.296;6.806;2023-04-04T09:18:02;102906.78;;;5.77;53.78
26443;BME280;5563;52.296;6.806;2023-04-04T09:23:17;102884.78;;;6.06;54.28
26443;BME280;5563;52.296;6.806;2023-04-04T09:25:48;102895.91;;;6.46;52.84
26443;BME280;5563;52.296;6.806;2023-04-04T09:28:30;102874.19;;;6.89;53.40
26443;BME280;5563;52.296;6.806;2023-04-04T09:31:06;102868.13;;;7.36;50.74
26443;BME280;5563;52.296;6.806;2023-04-04T09:33:42;102871.63;;;7.86;50.96
26443;BME280;5563;52.296;6.806;2023-04-04T09:36:16;102886.06;;;8.23;48.53
26443;BME280;5563;52.296;6.806;2023-04-04T09:38:52;102861.22;;;8.26;48.22
26443;BME280;5563;52.296;6.806;2023-04-04T09:41:19;102862.88;;;8.28;45.86
26443;BME280;5563;52.296;6.806;2023-04-04T09:43:56;102884.91;;;8.53;47.49
26443;BME280;5563;52.296;6.806;2023-04-04T09:46:23;102878.69;;;8.76;47.07
26443;BME280;5563;52.296;6.806;2023-04-04T09:49:00;102847.75;;;8.73;46.75
26443;BME280;5563;52.296;6.806;2023-04-04T09:51:39;102876.84;;;8.98;44.08
26443;BME280;5563;52.296;6.806;2023-04-04T09:54:20;102873.66;;;9.10;45.32
26443;BME280;5563;52.296;6.806;2023-04-04T09:56:55;102855.97;;;9.09;46.88
26443;BME280;5563;52.296;6.806;2023-04-04T09:59:29;102867.28;;;9.34;43.30
26443;BME280;5563;52.296;6.806;2023-04-04T10:02:07;102872.94;;;9.27;42.07
26443;BME280;5563;52.296;6.806;2023-04-04T10:04:42;102870.69;;;9.38;42.38
26443;BME280;5563;52.296;6.806;2023-04-04T10:07:29;102866.56;;;9.31;42.89
26443;BME280;5563;52.296;6.806;2023-04-04T10:10:05;102877.53;;;9.23;42.82
26443;BME280;5563;52.296;6.806;2023-04-04T10:12:39;102864.69;;;9.13;41.99
26443;BME280;5563;52.296;6.806;2023-04-04T10:15:07;102884.25;;;9.32;42.39
26443;BME280;5563;52.296;6.806;2023-04-04T10:17:43;102866.94;;;9.42;41.42
26443;BME280;5563;52.296;6.806;2023-04-04T10:20:11;102870.72;;;9.56;41.46
26443;BME280;5563;52.296;6.806;2023-04-04T10:22:45;102857.63;;;9.72;41.09
26443;BME280;5563;52.296;6.806;2023-04-04T10:25:12;102882.31;;;9.94;39.68
26443;BME280;5563;52.296;6.806;2023-04-04T10:27:46;102854.94;;;9.72;41.11
26443;BME280;5563;52.296;6.806;2023-04-04T10:30:15;102858.13;;;9.99;39.84
26443;BME280;5563;52.296;6.806;2023-04-04T10:32:59;102857.03;;;10.23;39.60
26443;BME280;5563;52.296;6.806;2023-04-04T10:35:27;102856.94;;;10.43;37.16
26443;BME280;5563;52.296;6.806;2023-04-04T10:38:02;102834.38;;;10.31;39.03
26443;BME280;5563;52.296;6.806;2023-04-04T10:40:35;102858.81;;;10.76;40.11
26443;BME280;5563;52.296;6.806;2023-04-04T10:43:13;102841.78;;;10.79;34.79
26443;BME280;5563;52.296;6.806;2023-04-04T10:45:48;102854.47;;;10.57;36.15
26443;BME280;5563;52.296;6.806;2023-04-04T10:48:21;102836.53;;;10.42;36.13
26443;BME280;5563;52.296;6.806;2023-04-04T10:50:55;102836.59;;;10.40;35.49
26443;BME280;5563;52.296;6.806;2023-04-04T10:53:29;102823.13;;;10.43;36.74
26443;BME280;5563;52.296;6.806;2023-04-04T10:56:04;102834.47;;;10.65;36.80
26443;BME280;5563;52.296;6.806;2023-04-04T10:58:38;102822.78;;;11.02;37.14
26443;BME280;5563;52.296;6.806;2023-04-04T11:01:12;102825.28;;;11.39;35.54
26443;BME280;5563;52.296;6.806;2023-04-04T11:04:14;102833.75;;;11.47;34.79
26443;BME280;5563;52.296;6.806;2023-04-04T11:07:18;102835.44;;;11.33;34.70
26443;BME280;5563;52.296;6.806;2023-04-04T11:09:45;102827.44;;;11.16;33.50
26443;BME280;5563;52.296;6.806;2023-04-04T11:12:27;102830.16;;;11.14;33.66
26443;BME280;5563;52.296;6.806;2023-04-04T11:20:15;102798.63;;;10.71;32.77
26443;BME280;5563;52.296;6.806;2023-04-04T11:23:09;102825.22;;;11.24;33.85
26443;BME280;5563;52.296;6.806;2023-04-04T11:25:56;102807.53;;;11.38;32.00
26443;BME280;5563;52.296;6.806;2023-04-04T11:31:27;102811.88;;;11.24;31.23
26443;BME280;5563;52.296;6.806;2023-04-04T11:34:09;102807.53;;;11.38;32.40
26443;BME280;5563;52.296;6.806;2023-04-04T11:36:50;102800.38;;;11.39;30.89
26443;BME280;5563;52.296;6.806;2023-04-04T11:39:29;102810.25;;;11.54;32.37
26443;BME280;5563;52.296;6.806;2023-04-04T11:42:12;102789.69;;;11.39;30.57
26443;BME280;5563;52.296;6.806;2023-04-04T11:47:23;102801.81;;;11.29;31.93
26443;BME280;5563;52.296;6.806;2023-04-04T11:49:52;102797.09;;;11.34;30.87
26443;BME280;5563;52.296;6.806;2023-04-04T11:52:31;102783.63;;;11.52;30.67
26443;BME280;5563;52.296;6.806;2023-04-04T11:55:19;102758.34;;;11.75;30.12
26443;BME280;5563;52.296;6.806;2023-04-04T11:57:54;102762.41;;;11.98;29.17
26443;BME280;5563;52.296;6.806;2023-04-04T12:00:36;102766.63;;;11.86;29.49
26443;BME280;5563;52.296;6.806;2023-04-04T12:03:11;102755.38;;;11.64;30.65
26443;BME280;5563;52.296;6.806;2023-04-04T12:05:39;102758.34;;;11.75;29.83
26443;BME280;5563;52.296;6.806;2023-04-04T12:08:14;102767.84;;;11.80;28.31
26443;BME280;5563;52.296;6.806;2023-04-04T12:10:41;102753.88;;;11.58;29.32
26443;BME280;5563;52.296;6.806;2023-04-04T12:13:29;102742.13;;;11.30;28.87
26443;BME280;5563;52.296;6.806;2023-04-04T12:16:03;102735.44;;;11.38;31.05
26443;BME280;5563;52.296;6.806;2023-04-04T12:18:30;102753.66;;;11.63;29.16
26443;BME280;5563;52.296;6.806;2023-04-04T12:21:05;102740.38;;;11.61;28.39
26443;BME280;5563;52.296;6.806;2023-04-04T12:23:33;102740.53;;;11.58;28.03
26443;BME280;5563;52.296;6.806;2023-04-04T12:26:07;102745.34;;;11.84;28.56
26443;BME280;5563;52.296;6.806;2023-04-04T12:28:35;102723.34;;;11.95;26.31
26443;BME280;5563;52.296;6.806;2023-04-04T12:31:12;102723.63;;;12.06;28.46
26443;BME280;5563;52.296;6.806;2023-04-04T12:33:40;102750.50;;;12.34;27.72
26443;BME280;5563;52.296;6.806;2023-04-04T12:36:17;102725.09;;;12.41;27.33
26443;BME280;5563;52.296;6.806;2023-04-04T12:39:05;102718.34;;;12.50;27.16
26443;BME280;5563;52.296;6.806;2023-04-04T12:41:56;102723.16;;;12.59;26.63
26443;BME280;5563;52.296;6.806;2023-04-04T12:44:29;102702.44;;;12.62;26.37
26443;BME280;5563;52.296;6.806;2023-04-04T12:47:04;102718.38;;;12.64;26.75
26443;BME280;5563;52.296;6.806;2023-04-04T12:49:39;102733.19;;;12.55;25.55
26443;BME280;5563;52.296;6.806;2023-04-04T12:52:27;102716.53;;;12.50;27.77
26443;BME280;5563;52.296;6.806;2023-04-04T12:54:57;102707.00;;;12.60;26.30
26443;BME280;5563;52.296;6.806;2023-04-04T12:57:35;102706.03;;;12.61;24.80
26443;BME280;5563;52.296;6.806;2023-04-04T13:00:13;102708.50;;;12.50;25.04
26443;BME280;5563;52.296;6.806;2023-04-04T13:02:48;102695.19;;;12.49;26.00
26443;BME280;5563;52.296;6.806;2023-04-04T13:05:17;102679.63;;;12.41;26.14
26443;BME280;5563;52.296;6.806;2023-04-04T13:08:07;102679.13;;;12.64;27.18
26443;BME280;5563;52.296;6.806;2023-04-04T13:11:01;102696.69;;;12.68;25.41
26443;BME280;5563;52.296;6.806;2023-04-04T13:13:38;102666.41;;;12.38;25.96
26443;BME280;5563;52.296;6.806;2023-04-04T13:16:33;102687.44;;;12.88;27.68
26443;BME280;5563;52.296;6.806;2023-04-04T13:19:09;102669.13;;;13.24;26.01
26443;BME280;5563;52.296;6.806;2023-04-04T13:21:38;102685.59;;;13.46;24.93
26443;BME280;5563;52.296;6.806;2023-04-04T13:24:12;102667.50;;;13.08;25.01
26443;BME280;5563;52.296;6.806;2023-04-04T13:26:46;102662.81;;;13.11;25.20
26443;BME280;5563;52.296;6.806;2023-04-04T13:29:20;102661.78;;;13.28;25.16
26443;BME280;5563;52.296;6.806;2023-04-04T13:31:47;102673.34;;;13.42;24.64
26443;BME280;5563;52.296;6.806;2023-04-04T13:34:21;102649.81;;;12.91;24.94
26443;BME280;5563;52.296;6.806;2023-04-04T13:36:50;102654.69;;;12.41;24.84
26443;BME280;5563;52.296;6.806;2023-04-04T13:39:24;102669.81;;;12.26;26.16
26443;BME280;5563;52.296;6.806;2023-04-04T13:41:59;102652.31;;;12.21;26.85
26443;BME280;5563;52.296;6.806;2023-04-04T13:44:27;102649.78;;;12.33;24.89
26443;BME280;5563;52.296;6.806;2023-04-04T13:47:01;102631.31;;;12.15;24.85
26443;BME280;5563;52.296;6.806;2023-04-04T13:49:28;102645.94;;;12.23;25.32
26443;BME280;5563;52.296;6.806;2023-04-04T13:52:02;102631.59;;;11.94;24.69